Time;durP1;ratioP1;P1;durP2;ratioP2;P2;SDS_P1;SDS_P2;PMS_P1;PMS_P2;Temp;Humidity;BMP_temperature;BMP_pressure;BME280_temperature;BME280_humidity;BME280_pressure;Samples;Min_cycle;Max_cycle;Signal;HPM_P1;HPM_P2
2023/05/07 09:37:04;;;;;;;3.65;1.88;;;;;;;22.56;51.65;100808.94;5897231;23;20389;-74
2023/05/07 09:39:47;;;;;;;3.45;1.85;;;;;;;24.15;46.81;100811.34;4877197;29;20139;-75
2023/05/07 09:42:16;;;;;;;2.58;1.48;;;;;;;23.96;45.69;100818.34;4863684;29;20037;-74
2023/05/07 09:44:44;;;;;;;5.25;1.80;;;;;;;23.35;47.37;100829.59;4847152;29;20036;-74
2023/05/07 09:47:12;;;;;;;2.75;1.60;;;;;;;22.77;48.41;100819.06;4877207;29;20033;-75
2023/05/07 09:49:42;;;;;;;4.07;1.70;;;;;;;22.39;49.83;100812.53;4845842;29;20044;-74
2023/05/07 09:52:10;;;;;;;6.05;2.25;;;;;;;24.26;46.41;100814.97;4860034;29;20037;-75
2023/05/07 09:54:37;;;;;;;2.72;1.45;;;;;;;23.58;46.23;100804.56;4876196;29;20041;-75
2023/05/07 09:57:04;;;;;;;2.85;1.60;;;;;;;22.71;47.80;100831.06;4875820;29;20391;-75
2023/05/07 09:59:32;;;;;;;2.53;1.50;;;;;;;21.38;50.84;100822.66;4846336;29;20076;-76
2023/05/07 10:01:59;;;;;;;3.88;1.65;;;;;;;20.66;53.15;100831.34;4863553;29;20106;-75
2023/05/07 10:04:26;;;;;;;3.20;1.30;;;;;;;20.79;54.15;100812.78;4863457;29;20033;-75
2023/05/07 10:06:53;;;;;;;4.97;1.70;;;;;;;20.84;53.05;100817.53;4848016;29;20096;-75
2023/05/07 10:09:19;;;;;;;3.20;1.23;;;;;;;20.64;53.64;100812.47;4848369;29;20040;-74
2023/05/07 10:11:45;;;;;;;4.43;1.48;;;;;;;20.42;54.93;100804.03;4862569;29;20037;-76
2023/05/07 10:14:11;;;;;;;4.10;1.30;;;;;;;20.36;55.26;100815.94;4847519;29;20476;-74
2023/05/07 10:16:37;;;;;;;2.65;2.15;;;;;;;21.13;52.84;100821.09;4848081;29;20074;-74
2023/05/07 10:19:09;;;;;;;3.30;1.60;;;;;;;21.37;52.62;100816.34;4878353;29;20036;-74
2023/05/07 10:21:39;;;;;;;2.20;1.40;;;;;;;21.20;52.77;100812.75;4878573;29;20032;-74
2023/05/07 10:24:14;;;;;;;4.07;1.60;;;;;;;21.24;52.61;100822.13;4846419;29;20260;-73
2023/05/07 10:26:43;;;;;;;2.88;1.10;;;;;;;21.17;51.63;100811.34;4846891;29;20136;-74
2023/05/07 10:29:21;;;;;;;2.65;0.88;;;;;;;20.68;53.26;100813.63;4848007;29;20052;-74
2023/05/07 10:32:20;;;;;;;3.00;1.30;;;;;;;20.14;53.79;100804.81;4862964;29;20124;-75
2023/05/07 10:34:49;;;;;;;2.15;1.27;;;;;;;19.84;55.87;100804.91;4863224;29;20116;-74
2023/05/07 10:37:15;;;;;;;2.80;1.30;;;;;;;19.75;56.46;100815.34;4878292;29;20483;-74
2023/05/07 10:39:41;;;;;;;3.40;1.38;;;;;;;19.32;56.84;100800.88;4850965;29;20072;-73
2023/05/07 10:42:08;;;;;;;4.60;1.25;;;;;;;18.91;57.49;100796.19;4879922;29;20037;-75
2023/05/07 10:44:35;;;;;;;3.00;1.50;;;;;;;18.73;60.14;100805.19;4850617;29;20040;-75
2023/05/07 10:47:11;;;;;;;2.80;1.35;;;;;;;18.69;60.89;100809.44;4866540;29;20037;-74
2023/05/07 10:49:46;;;;;;;2.90;1.30;;;;;;;18.65;62.56;100816.41;4881902;29;20053;-74
2023/05/07 10:52:18;;;;;;;5.43;1.60;;;;;;;18.61;62.29;100807.88;4881793;29;20407;-75
2023/05/07 10:54:45;;;;;;;1.98;1.15;;;;;;;18.51;62.48;100809.47;4851310;29;20121;-74
2023/05/07 10:57:32;;;;;;;1.88;1.25;;;;;;;18.54;63.33;100809.00;4866601;29;20104;-74
2023/05/07 10:59:58;;;;;;;5.25;1.60;;;;;;;18.62;64.03;100787.72;4866580;29;20028;-75
2023/05/07 11:02:59;;;;;;;3.63;1.20;;;;;;;18.74;62.54;100812.31;4865872;29;20490;-74
2023/05/07 11:05:25;;;;;;;;;;;;;;;18.58;62.23;100818.38;4881794;29;20045;-75
2023/05/07 11:07:58;;;;;;;2.58;1.55;;;;;;;18.91;62.13;100820.72;4882915;29;19918;-75
2023/05/07 11:10:53;;;;;;;1.00;0.90;;;;;;;19.01;62.13;100812.00;4850851;29;20041;-75
2023/05/07 11:13:48;;;;;;;1.88;1.17;;;;;;;18.89;59.85;100811.94;4880729;29;20041;-78
2023/05/07 11:16:21;;;;;;;1.92;1.48;;;;;;;18.85;60.59;100792.50;4865026;29;20041;-79
2023/05/07 11:18:51;;;;;;;1.95;1.20;;;;;;;18.86;60.96;100815.94;4881588;29;20033;-78
2023/05/07 11:21:39;;;;;;;6.43;1.98;;;;;;;19.00;61.78;100810.31;4866062;29;20044;-78
2023/05/07 11:24:06;;;;;;;4.30;1.50;;;;;;;18.98;59.91;100813.28;4881549;29;20116;-78
2023/05/07 11:26:52;;;;;;;4.10;1.30;;;;;;;19.16;60.41;100811.56;4881406;29;20064;-78
2023/05/07 11:29:20;;;;;;;4.32;1.23;;;;;;;19.42;61.14;100805.72;4880665;29;20053;-79
2023/05/07 11:31:50;;;;;;;4.82;1.38;;;;;;;19.90;59.99;100806.66;4866052;29;20096;-79
2023/05/07 11:34:24;;;;;;;4.80;1.80;;;;;;;19.89;59.31;100796.84;4865963;29;20044;-79
2023/05/07 11:36:50;;;;;;;5.93;2.33;;;;;;;19.91;60.03;100808.34;4865914;29;20041;-78
2023/05/07 11:39:30;;;;;;;4.43;1.80;;;;;;;20.04;59.72;100810.84;4881125;29;20526;-78
2023/05/07 11:41:56;;;;;;;5.68;2.53;;;;;;;20.53;59.29;100816.84;4881135;29;20048;-78
2023/05/07 11:44:21;;;;;;;2.40;1.33;;;;;;;20.64;56.25;100815.22;4850276;29;20040;-78
2023/05/07 11:46:48;;;;;;;4.50;1.50;;;;;;;20.26;57.05;100807.50;4865718;29;20067;-78
2023/05/07 11:49:14;;;;;;;2.30;0.82;;;;;;;19.97;56.35;100805.50;4880786;29;20037;-78
2023/05/07 11:51:41;;;;;;;1.75;1.30;;;;;;;19.73;56.14;100806.53;4849926;29;20041;-78
2023/05/07 11:54:08;;;;;;;2.35;1.42;;;;;;;19.65;57.17;100801.41;4881012;29;20044;-78
2023/05/07 11:56:35;;;;;;;2.88;1.60;;;;;;;19.73;56.38;100798.38;4865691;29;20048;-78
2023/05/07 11:59:01;;;;;;;2.13;1.30;;;;;;;20.08;55.76;100792.91;4850349;29;20037;-78
2023/05/07 12:01:27;;;;;;;2.97;1.30;;;;;;;20.17;55.27;100802.41;4880427;29;20036;-78
2023/05/07 12:03:53;;;;;;;2.55;1.25;;;;;;;19.91;55.52;100789.25;4865677;29;20039;-79
2023/05/07 12:06:25;;;;;;;3.72;1.05;;;;;;;19.97;55.97;100797.31;4880527;29;20033;-79
2023/05/07 12:09:01;;;;;;;1.07;0.80;;;;;;;19.90;55.82;100810.25;4849820;29;20041;-78
2023/05/07 12:11:46;;;;;;;1.92;1.38;;;;;;;19.64;57.42;100759.66;4866749;29;20044;-78
2023/05/07 12:14:21;;;;;;;3.00;1.23;;;;;;;20.05;57.64;100793.38;4880235;29;20075;-78
2023/05/07 12:16:51;;;;;;;3.78;1.40;;;;;;;20.56;56.59;100780.03;4865343;29;20041;-78
2023/05/07 12:22:43;;;;;;;5.40;1.20;;;;;;;20.11;55.37;100778.81;4878361;29;20048;-75
2023/05/07 12:25:09;;;;;;;2.92;1.20;;;;;;;19.92;56.07;100782.72;4865346;29;20043;-79
2023/05/07 12:27:38;;;;;;;2.70;1.20;;;;;;;19.59;57.07;100756.81;4849405;29;20455;-77
2023/05/07 12:30:03;;;;;;;3.03;1.13;;;;;;;19.26;58.14;100779.97;4880169;29;20033;-77
2023/05/07 12:32:29;;;;;;;2.15;0.90;;;;;;;19.12;59.04;100805.75;4881540;29;20029;-77
2023/05/07 12:34:55;;;;;;;1.98;0.75;;;;;;;19.07;60.71;100794.72;4864528;29;20033;-77
2023/05/07 12:37:25;;;;;;;0.88;0.68;;;;;;;19.49;60.04;100795.56;4879212;29;20128;-78
2023/05/07 12:40:09;;;;;;;1.20;0.98;;;;;;;20.34;57.79;100788.84;4880196;29;20380;-75
2023/05/07 12:42:39;;;;;;;2.05;0.95;;;;;;;20.70;55.27;100780.63;4849268;29;20045;-77
2023/05/07 12:45:12;;;;;;;3.50;1.20;;;;;;;20.60;55.41;100779.31;4879852;29;20032;-77
2023/05/07 12:47:37;;;;;;;1.77;1.02;;;;;;;20.05;56.19;100755.19;4864796;29;20068;-77
2023/05/07 12:50:06;;;;;;;3.88;1.10;;;;;;;19.75;57.84;100772.50;4879786;29;20052;-78
2023/05/07 12:52:32;;;;;;;1.13;0.85;;;;;;;19.26;59.40;100790.03;4864165;29;20043;-77
2023/05/07 12:55:07;;;;;;;2.42;0.98;;;;;;;18.71;62.35;100791.00;4834074;29;20545;-77
2023/05/07 12:57:53;;;;;;;4.88;1.13;;;;;;;18.29;63.83;100815.34;4879959;29;20029;-78
2023/05/07 13:00:41;;;;;;;3.70;1.10;;;;;;;18.01;65.87;100810.38;4848881;29;20055;-77
2023/05/07 13:03:06;;;;;;;3.45;1.20;;;;;;;18.13;67.32;100808.59;4834896;29;20040;-78
2023/05/07 13:05:32;;;;;;;4.72;1.27;;;;;;;18.45;67.60;100801.13;4864283;29;20383;-76
2023/05/07 13:07:58;;;;;;;1.85;1.42;;;;;;;18.65;65.94;100795.44;4879569;29;20041;-77
2023/05/07 13:10:24;;;;;;;5.38;1.50;;;;;;;18.73;63.68;100824.25;4864003;29;20037;-77
2023/05/07 13:12:51;;;;;;;3.10;1.20;;;;;;;18.45;64.25;100822.91;4879320;29;20040;-77
2023/05/07 13:15:17;;;;;;;4.00;1.25;;;;;;;18.31;65.00;100824.13;4879411;29;20047;-77
2023/05/07 13:17:43;;;;;;;3.28;1.35;;;;;;;18.52;65.50;100805.66;4879636;29;20045;-76
2023/05/07 13:20:12;;;;;;;2.55;1.30;;;;;;;19.18;63.78;100815.72;4879105;29;20097;-77
2023/05/07 13:22:39;;;;;;;5.03;1.52;;;;;;;19.72;60.79;100808.44;4864054;29;20069;-77
2023/05/07 13:25:05;;;;;;;4.13;1.45;;;;;;;20.14;58.75;100802.06;4848903;29;20124;-79
2023/05/07 13:27:31;;;;;;;1.55;1.05;;;;;;;20.28;57.41;100810.84;4894651;29;20084;-77
2023/05/07 13:29:57;;;;;;;2.65;1.02;;;;;;;20.39;57.47;100812.72;4879369;29;20464;-77
2023/05/07 13:32:23;;;;;;;1.80;0.95;;;;;;;20.19;57.75;100811.19;4879437;29;20037;-76
2023/05/07 13:34:48;;;;;;;2.58;1.17;;;;;;;19.82;59.37;100804.28;4879185;29;20033;-76
2023/05/07 13:37:14;;;;;;;3.08;1.55;;;;;;;19.31;61.18;100803.81;4848009;29;20487;-77
2023/05/07 13:39:40;;;;;;;2.42;1.30;;;;;;;18.80;62.99;100805.16;4878995;29;20144;-76
2023/05/07 13:42:06;;;;;;;4.28;1.73;;;;;;;18.69;64.14;100817.63;4863643;29;20033;-77
2023/05/07 13:44:33;;;;;;;6.65;1.75;;;;;;;18.70;66.37;100802.94;4879139;29;20100;-77
2023/05/07 13:47:00;;;;;;;3.35;1.50;;;;;;;18.84;64.18;100815.38;4863933;29;20075;-76
2023/05/07 13:49:26;;;;;;;2.72;1.48;;;;;;;18.80;64.79;100819.59;4878977;29;20061;-79
2023/05/07 13:51:55;;;;;;;4.93;1.88;;;;;;;18.76;66.94;100826.59;4879069;29;20085;-77
